Time,TemperatureF,DewpointF,PressureIn,WindDirection,WindDirectionDegrees,WindSpeedMPH,WindSpeedGustMPH,Humidity,HourlyPrecipIn,Conditions,Clouds,dailyrainin,SolarRadiationWatts/m^2,SoftwareType,DateUTC
2013-07-02 00:00:00,64.0,63.0,27.45,NE,35,0.0,-999.0,95,-99.99,,,-99.99,0.000000,,2013-07-02 05:00:00,
2013-07-02 03:00:00,63.0,61.0,27.34,NE,44,1.0,-999.0,96,-99.99,,,-99.99,0.000000,,2013-07-02 08:00:00,
2013-07-02 04:00:00,62.0,61.0,27.38,NE,40,1.0,-999.0,96,-99.99,,,-99.99,0.000000,,2013-07-02 09:00:00,
2013-07-02 05:00:00,62.0,61.0,27.37,ENE,58,1.0,-999.0,96,-99.99,,,-99.99,0.000000,,2013-07-02 10:00:00,
2013-07-02 06:00:00,61.0,61.0,27.39,NNE,28,1.0,-999.0,97,-99.99,,,-99.99,3.740000,,2013-07-02 11:00:00,
2013-07-02 07:00:00,66.0,64.0,27.39,NE,36,1.0,-999.0,93,-99.99,,,-99.99,60.799999,,2013-07-02 12:00:00,
2013-07-02 08:00:00,71.0,66.0,27.40,WNW,290,1.0,-999.0,83,-99.99,,,-99.99,115.500000,,2013-07-02 13:00:00,
2013-07-02 09:00:00,74.0,66.0,27.41,WSW,240,3.0,-999.0,76,-99.99,,,-99.99,0.000000,,2013-07-02 14:00:00,
2013-07-02 10:00:00,77.0,66.0,27.47,SW,227,3.0,-999.0,70,-99.99,,,-99.99,0.000000,,2013-07-02 15:00:00,
2013-07-02 11:00:00,79.0,66.0,27.41,SW,233,4.0,-999.0,64,-99.99,,,-99.99,0.000000,,2013-07-02 16:00:00,
2013-07-02 12:00:00,80.0,65.0,27.44,WSW,238,5.0,-999.0,59,-99.99,,,-99.99,0.000000,,2013-07-02 17:00:00,
2013-07-02 13:00:00,82.0,62.0,27.38,SW,215,7.0,-999.0,50,-99.99,,,-99.99,0.000000,,2013-07-02 18:00:00,
2013-07-02 14:00:00,83.0,61.0,27.53,SW,222,8.0,-999.0,47,-99.99,,,-99.99,0.000000,,2013-07-02 19:00:00,
2013-07-02 15:00:00,85.0,63.0,27.70,SW,231,7.0,-999.0,48,-99.99,,,-99.99,0.000000,,2013-07-02 20:00:00,
2013-07-02 16:00:00,83.0,61.0,27.48,WSW,251,5.0,-999.0,48,-99.99,,,-99.99,625.599976,,2013-07-02 21:00:00,
2013-07-02 17:00:00,83.0,63.0,27.38,WSW,246,5.0,-999.0,51,-99.99,,,-99.99,493.100006,,2013-07-02 22:00:00,
2013-07-02 17:53:00,83.0,63.0,27.38,WSW,246,5.0,-999.0,51,-99.99,,,-99.99,493.100006,,2013-07-02 22:53:00,
2013-07-02 18:00:00,84.0,63.0,27.43,WSW,257,3.0,-999.0,49,-99.99,,,-99.99,70.500000,,2013-07-02 23:00:00,
2013-07-02 18:52:00,84.0,63.0,27.43,WSW,257,3.0,-999.0,49,-99.99,,,-99.99,70.500000,,2013-07-02 23:52:00,
2013-07-02 19:00:00,82.0,65.0,27.41,WNW,296,2.0,-999.0,56,-99.99,,,-99.99,0.000000,,2013-07-03 00:00:00,
2013-07-02 19:52:00,82.0,65.0,27.41,WNW,296,2.0,-999.0,56,-99.99,,,-99.99,0.000000,,2013-07-03 00:52:00,
2013-07-02 20:00:00,76.0,66.0,27.64,West,281,1.0,-999.0,70,-99.99,,,-99.99,0.000000,,2013-07-03 01:00:00,
2013-07-02 21:00:00,72.0,66.0,27.46,SE,125,2.0,-999.0,81,-99.99,,,-99.99,0.000000,,2013-07-03 02:00:00,
2013-07-02 22:00:00,69.0,66.0,27.53,East,79,2.0,-999.0,90,-99.99,,,-99.99,0.000000,,2013-07-03 03:00:00,
2013-07-02 23:00:00,68.0,65.0,27.45,NE,43,1.0,-999.0,93,-99.99,,,-99.99,0.000000,,2013-07-03 04:00:00,